Time;durP1;ratioP1;P1;durP2;ratioP2;P2;SDS_P1;SDS_P2;PMS_P1;PMS_P2;Temp;Humidity;BMP_temperature;BMP_pressure;BME280_temperature;BME280_humidity;BME280_pressure;Samples;Min_cycle;Max_cycle;Signal;HPM_P1;HPM_P2
2021/01/11 00:00:25;;;;;;;45.70;15.82;;;0.90;99.90;;;;;;4907232;28;20083;-83
2021/01/11 00:02:48;;;;;;;41.10;15.40;;;0.90;99.90;;;;;;4902118;28;20180;-80
2021/01/11 00:05:13;;;;;;;46.20;14.93;;;0.90;99.90;;;;;;4902841;28;20530;-83
2021/01/11 00:07:36;;;;;;;35.55;13.80;;;0.90;99.90;;;;;;4902580;28;20517;-81
2021/01/11 00:09:59;;;;;;;38.53;14.63;;;;;;;;;;4906599;28;20195;-83
2021/01/11 00:12:22;;;;;;;45.05;14.82;;;1.00;99.90;;;;;;4901554;28;20086;-81
2021/01/11 00:14:45;;;;;;;50.38;15.45;;;1.00;99.90;;;;;;4900859;28;20119;-81
2021/01/11 00:17:09;;;;;;;38.58;14.68;;;1.00;99.90;;;;;;4897863;28;20112;-81
2021/01/11 00:19:32;;;;;;;41.65;15.50;;;;;;;;;;4897657;28;20452;-80
2021/01/11 00:21:55;;;;;;;42.08;13.32;;;1.00;99.90;;;;;;4900143;28;20507;-84
2021/01/11 00:24:18;;;;;;;46.00;15.45;;;1.00;99.90;;;;;;4900624;28;20584;-79
2021/01/11 00:26:40;;;;;;;45.50;15.63;;;1.00;99.90;;;;;;4902814;28;20124;-79
2021/01/11 00:29:03;;;;;;;43.30;16.73;;;1.00;99.90;;;;;;4901170;28;20130;-80
2021/01/11 00:31:26;;;;;;;44.78;15.57;;;0.90;99.90;;;;;;4903176;28;20099;-84
2021/01/11 00:33:50;;;;;;;43.70;14.52;;;0.90;99.90;;;;;;4903363;28;20171;-80
2021/01/11 00:36:13;;;;;;;56.17;16.45;;;0.90;99.90;;;;;;4898880;28;20116;-80
2021/01/11 00:38:36;;;;;;;42.85;16.30;;;0.90;99.90;;;;;;4904189;28;20148;-79
2021/01/11 00:40:59;;;;;;;48.17;14.73;;;0.90;99.90;;;;;;4903668;28;20519;-81
2021/01/11 00:43:22;;;;;;;54.35;17.48;;;0.90;99.90;;;;;;4900545;28;20627;-82
2021/01/11 00:45:45;;;;;;;47.35;16.13;;;0.90;99.90;;;;;;4901205;28;20233;-80
2021/01/11 00:48:09;;;;;;;53.50;16.58;;;1.00;99.90;;;;;;4900017;28;20121;-79
2021/01/11 00:50:33;;;;;;;50.30;16.35;;;;;;;;;;4900911;28;20146;-79
2021/01/11 00:52:56;;;;;;;52.75;16.05;;;1.00;99.90;;;;;;4905925;28;20134;-80
2021/01/11 00:55:22;;;;;;;60.75;17.25;;;1.00;99.90;;;;;;4900890;28;23489;-80
2021/01/11 00:57:44;;;;;;;48.72;18.00;;;1.10;99.90;;;;;;4901286;28;20446;-82
2021/01/11 01:00:10;;;;;;;56.38;17.08;;;1.10;99.90;;;;;;4904288;28;20106;-80
2021/01/11 01:02:33;;;;;;;64.97;19.30;;;1.10;99.90;;;;;;4902071;28;20094;-80
2021/01/11 01:04:57;;;;;;;55.97;18.58;;;1.10;99.90;;;;;;4904072;28;20100;-79
2021/01/11 01:07:21;;;;;;;53.88;17.90;;;1.20;99.90;;;;;;4901003;28;20136;-79
2021/01/11 01:09:44;;;;;;;55.00;17.33;;;1.10;99.90;;;;;;4902685;28;20563;-81
2021/01/11 01:12:07;;;;;;;54.58;19.10;;;1.20;99.90;;;;;;4900313;28;20105;-79
2021/01/11 01:14:30;;;;;;;50.65;17.40;;;1.20;99.90;;;;;;4903659;28;20133;-80
2021/01/11 01:16:53;;;;;;;48.92;17.00;;;1.20;99.90;;;;;;4901520;28;20179;-80
2021/01/11 01:19:15;;;;;;;55.38;17.40;;;1.20;99.90;;;;;;4895731;28;20181;-80
2021/01/11 01:21:38;;;;;;;53.50;17.33;;;1.20;99.90;;;;;;4898264;28;20119;-80
2021/01/11 01:24:02;;;;;;;65.47;17.88;;;1.20;99.90;;;;;;4904063;28;20087;-81
2021/01/11 01:26:25;;;;;;;48.88;17.45;;;1.20;99.90;;;;;;4905451;28;20099;-79
2021/01/11 01:28:48;;;;;;;53.67;18.08;;;1.20;99.90;;;;;;4906753;28;20199;-81
2021/01/11 01:31:11;;;;;;;52.28;17.48;;;1.30;99.90;;;;;;4909614;28;20094;-83
2021/01/11 01:33:33;;;;;;;55.13;17.85;;;1.20;99.90;;;;;;4906667;28;20178;-81
2021/01/11 01:35:57;;;;;;;52.28;17.13;;;1.30;99.90;;;;;;4907782;28;20173;-81
2021/01/11 01:38:20;;;;;;;49.88;17.17;;;1.30;99.90;;;;;;4903167;28;20097;-80
2021/01/11 01:40:45;;;;;;;63.47;19.67;;;1.30;99.90;;;;;;4904368;28;20099;-79
2021/01/11 01:43:08;;;;;;;53.15;17.23;;;1.30;99.90;;;;;;4901888;28;20103;-79
2021/01/11 01:45:31;;;;;;;61.92;19.00;;;1.30;99.90;;;;;;4904808;28;20299;-80
2021/01/11 01:47:54;;;;;;;64.15;18.15;;;1.30;99.90;;;;;;4905756;28;20094;-82
2021/01/11 01:50:17;;;;;;;48.70;17.17;;;1.30;99.90;;;;;;4905140;28;20131;-84
2021/01/11 01:52:42;;;;;;;55.78;18.23;;;1.40;99.90;;;;;;4906260;28;20113;-80
2021/01/11 01:55:07;;;;;;;54.85;18.85;;;1.40;99.90;;;;;;4903525;28;20126;-79
2021/01/11 01:57:32;;;;;;;67.22;19.98;;;1.30;99.90;;;;;;4898648;28;20165;-80
2021/01/11 01:59:55;;;;;;;66.03;20.63;;;1.40;99.90;;;;;;4914503;28;20221;-79
2021/01/11 02:02:19;;;;;;;68.53;21.25;;;1.40;99.90;;;;;;4904060;28;20106;-82
2021/01/11 02:04:43;;;;;;;64.82;19.52;;;1.40;99.90;;;;;;4900907;28;20156;-79
2021/01/11 02:07:23;;;;;;;74.75;20.75;;;1.40;99.90;;;;;;4904181;28;20122;-80
2021/01/11 02:09:56;;;;;;;65.63;19.25;;;1.50;99.90;;;;;;4903418;28;20467;-81
2021/01/11 02:12:22;;;;;;;73.13;20.85;;;1.50;99.90;;;;;;4901449;28;20097;-80
2021/01/11 02:15:00;;;;;;;75.85;20.73;;;1.50;99.90;;;;;;4904607;28;20117;-79
2021/01/11 02:17:29;;;;;;;63.65;19.48;;;1.50;99.90;;;;;;4902613;28;20559;-82
2021/01/11 02:20:33;;;;;;;72.38;20.63;;;1.50;99.90;;;;;;4903855;28;20113;-79
2021/01/11 02:23:18;;;;;;;70.18;21.70;;;1.50;99.90;;;;;;4895628;28;20122;-81
2021/01/11 02:25:43;;;;;;;72.22;20.88;;;1.50;99.90;;;;;;4904873;28;20134;-79
2021/01/11 02:28:26;;;;;;;75.60;22.35;;;1.60;99.90;;;;;;4903315;28;20116;-83
2021/01/11 02:30:54;;;;;;;81.05;21.90;;;1.60;99.90;;;;;;4897348;28;20193;-79
2021/01/11 02:33:17;;;;;;;99.20;23.15;;;1.60;99.90;;;;;;4902397;28;20087;-79
2021/01/11 02:36:06;;;;;;;75.78;21.42;;;1.60;99.90;;;;;;4906918;28;20102;-81
2021/01/11 02:38:30;;;;;;;82.13;22.75;;;1.60;99.90;;;;;;4890111;28;20116;-83
2021/01/11 02:40:53;;;;;;;89.07;24.90;;;1.60;99.90;;;;;;4903581;28;20479;-83
2021/01/11 02:43:17;;;;;;;87.07;24.23;;;1.60;99.90;;;;;;4904014;28;20077;-80
2021/01/11 02:45:40;;;;;;;94.40;24.00;;;1.60;99.90;;;;;;4902550;28;20451;-80
2021/01/11 02:48:13;;;;;;;102.97;24.33;;;1.60;99.90;;;;;;4908216;28;20113;-82
2021/01/11 02:50:45;;;;;;;94.18;25.90;;;1.70;99.90;;;;;;4903338;28;20094;-82
2021/01/11 02:53:19;;;;;;;99.68;24.77;;;1.70;99.90;;;;;;4902389;28;20188;-82
2021/01/11 02:55:50;;;;;;;92.07;25.92;;;1.70;99.90;;;;;;4901571;28;20104;-80
2021/01/11 02:58:26;;;;;;;89.47;25.88;;;1.70;99.90;;;;;;4902098;28;20183;-79
2021/01/11 03:00:53;;;;;;;99.95;24.95;;;1.70;99.90;;;;;;4904189;28;20093;-82
2021/01/11 03:03:19;;;;;;;93.93;24.48;;;1.70;99.90;;;;;;4902466;28;20562;-80
2021/01/11 03:05:41;;;;;;;94.40;24.65;;;1.70;99.90;;;;;;4900838;28;20169;-80
2021/01/11 03:08:05;;;;;;;93.57;25.52;;;1.70;99.90;;;;;;4905633;28;20157;-83
2021/01/11 03:10:28;;;;;;;93.20;26.17;;;1.80;99.90;;;;;;4905656;28;20096;-78
2021/01/11 03:12:51;;;;;;;96.75;25.77;;;1.80;99.90;;;;;;4902775;28;20165;-80
2021/01/11 03:15:16;;;;;;;98.47;26.67;;;1.80;99.90;;;;;;4907401;28;20117;-80
2021/01/11 03:17:38;;;;;;;115.15;27.30;;;1.80;99.90;;;;;;4902506;28;20086;-80
2021/01/11 03:20:02;;;;;;;96.38;25.23;;;;;;;;;;4901504;28;20533;-79
2021/01/11 03:22:26;;;;;;;95.57;24.85;;;1.90;99.90;;;;;;4904797;28;20111;-79
2021/01/11 03:24:49;;;;;;;104.43;25.30;;;1.80;99.90;;;;;;4904775;28;20110;-80
2021/01/11 03:27:12;;;;;;;103.57;26.30;;;1.90;99.90;;;;;;4900719;28;20489;-80
2021/01/11 03:29:35;;;;;;;100.03;25.75;;;1.90;99.90;;;;;;4905428;28;20091;-78
2021/01/11 03:31:57;;;;;;;113.85;26.75;;;1.90;99.90;;;;;;4903624;28;20187;-83
2021/01/11 03:34:20;;;;;;;109.43;26.83;;;1.90;99.90;;;;;;4904841;28;20175;-80
2021/01/11 03:36:45;;;;;;;119.75;27.85;;;1.90;99.90;;;;;;4904708;28;20219;-80
2021/01/11 03:39:09;;;;;;;104.07;23.85;;;1.90;99.90;;;;;;4900820;28;20165;-84
2021/01/11 03:41:34;;;;;;;92.03;26.23;;;1.90;99.90;;;;;;4900284;28;20545;-80
2021/01/11 03:43:56;;;;;;;111.80;27.43;;;1.90;99.90;;;;;;4903797;28;20094;-81
2021/01/11 03:46:19;;;;;;;96.35;25.42;;;1.90;99.90;;;;;;4902948;28;20530;-81
2021/01/11 03:48:43;;;;;;;92.35;23.80;;;2.00;99.90;;;;;;4903392;28;20138;-81
2021/01/11 03:51:07;;;;;;;118.85;27.55;;;2.00;99.90;;;;;;4901677;28;20168;-80
2021/01/11 03:53:31;;;;;;;101.60;28.48;;;1.90;99.90;;;;;;4902861;28;20096;-79
2021/01/11 03:55:54;;;;;;;120.18;28.25;;;1.90;99.90;;;;;;4904133;28;20172;-83
2021/01/11 03:58:17;;;;;;;110.97;28.23;;;1.90;99.90;;;;;;4905321;28;20094;-80
2021/01/11 04:00:42;;;;;;;105.43;26.80;;;1.90;99.90;;;;;;4903293;28;20127;-80
2021/01/11 04:03:05;;;;;;;95.30;24.33;;;1.90;99.90;;;;;;4901828;28;20092;-79
2021/01/11 04:05:28;;;;;;;80.53;23.85;;;1.90;99.90;;;;;;4902255;28;20104;-81
2021/01/11 04:07:51;;;;;;;99.22;24.73;;;1.90;99.90;;;;;;4901523;28;20484;-84
2021/01/11 04:10:15;;;;;;;110.15;27.52;;;;;;;;;;4902607;28;20117;-81
2021/01/11 04:12:38;;;;;;;104.15;27.00;;;1.90;99.90;;;;;;4898921;28;20089;-80
2021/01/11 04:15:00;;;;;;;114.53;26.45;;;1.90;99.90;;;;;;4901368;28;20105;-80
2021/01/11 04:17:23;;;;;;;112.90;26.90;;;1.90;99.90;;;;;;4897513;28;20081;-80
2021/01/11 04:19:46;;;;;;;97.18;26.60;;;2.00;99.90;;;;;;4900217;28;20128;-79
2021/01/11 04:22:09;;;;;;;106.82;27.35;;;1.90;99.90;;;;;;4900755;28;20179;-80
2021/01/11 04:24:33;;;;;;;104.93;26.70;;;2.00;99.90;;;;;;4901518;28;20171;-80
2021/01/11 04:26:56;;;;;;;97.22;25.70;;;2.00;99.90;;;;;;4902358;28;20615;-80
2021/01/11 04:29:19;;;;;;;109.18;25.88;;;2.00;99.90;;;;;;4892515;28;20180;-85
2021/01/11 04:31:42;;;;;;;121.38;27.05;;;2.00;99.90;;;;;;4901681;28;20233;-79
2021/01/11 04:34:05;;;;;;;116.63;26.70;;;2.10;99.90;;;;;;4902296;28;20157;-81
2021/01/11 04:36:27;;;;;;;110.43;27.25;;;2.10;99.90;;;;;;4899299;28;20084;-86
2021/01/11 04:38:50;;;;;;;102.47;24.38;;;2.10;99.90;;;;;;4901849;28;20551;-81
2021/01/11 04:41:14;;;;;;;105.75;25.98;;;2.10;99.90;;;;;;4899603;28;20093;-80
2021/01/11 04:43:44;;;;;;;98.60;25.38;;;2.10;99.90;;;;;;4899564;28;20529;-82
2021/01/11 04:46:07;;;;;;;95.78;25.98;;;2.10;99.90;;;;;;4901780;28;20171;-81
2021/01/11 04:48:31;;;;;;;100.70;26.23;;;2.10;99.90;;;;;;4904242;28;20508;-80
2021/01/11 04:50:55;;;;;;;104.45;25.45;;;2.20;99.90;;;;;;4898661;28;20163;-80
2021/01/11 04:53:20;;;;;;;112.53;26.88;;;2.20;99.90;;;;;;4903102;28;20483;-81
2021/01/11 04:55:46;;;;;;;117.28;26.85;;;2.20;99.90;;;;;;4902970;28;20100;-83
2021/01/11 04:58:11;;;;;;;109.00;27.05;;;2.20;99.90;;;;;;4906072;28;20185;-81
2021/01/11 05:00:38;;;;;;;102.20;25.38;;;2.20;99.90;;;;;;4900869;28;20216;-83
2021/01/11 05:03:03;;;;;;;96.20;26.70;;;2.20;99.90;;;;;;4903769;28;20510;-81
2021/01/11 05:05:30;;;;;;;117.05;26.63;;;2.20;99.90;;;;;;4900588;28;20090;-81
2021/01/11 05:07:52;;;;;;;108.82;26.23;;;2.20;99.90;;;;;;4898236;28;20104;-81
2021/01/11 05:10:22;;;;;;;107.03;25.30;;;2.20;99.90;;;;;;4901106;28;20097;-86
2021/01/11 05:12:56;;;;;;;113.93;28.23;;;2.20;99.90;;;;;;4901267;28;20173;-81
2021/01/11 05:15:22;;;;;;;104.30;26.40;;;2.20;99.90;;;;;;4903222;28;20498;-82
2021/01/11 05:17:46;;;;;;;;;;;2.20;99.90;;;;;;4905422;28;20100;-82
2021/01/11 05:20:11;;;;;;;102.95;24.55;;;2.20;99.90;;;;;;4904877;28;20409;-80
2021/01/11 05:22:33;;;;;;;112.03;25.02;;;2.20;99.90;;;;;;4904028;28;20092;-79
2021/01/11 05:24:56;;;;;;;98.10;24.45;;;2.20;99.90;;;;;;4899542;28;20089;-80
2021/01/11 05:27:24;;;;;;;116.00;25.05;;;2.20;99.90;;;;;;4899727;28;20078;-81
2021/01/11 05:29:50;;;;;;;106.35;26.67;;;2.20;99.90;;;;;;4902201;28;20090;-81
2021/01/11 05:32:13;;;;;;;108.60;27.88;;;2.20;99.90;;;;;;4900846;28;20167;-80
2021/01/11 05:34:57;;;;;;;102.43;26.23;;;2.20;99.90;;;;;;4902857;28;20180;-80
2021/01/11 05:37:34;;;;;;;105.75;25.38;;;2.20;99.90;;;;;;4894655;28;20111;-82
2021/01/11 05:40:10;;;;;;;99.70;25.00;;;2.20;99.90;;;;;;4898718;28;20184;-81
2021/01/11 05:42:33;;;;;;;101.07;25.13;;;2.20;99.90;;;;;;4894325;28;20085;-83
2021/01/11 05:45:12;;;;;;;104.88;26.85;;;2.20;99.90;;;;;;4904177;28;20179;-80
2021/01/11 05:47:36;;;;;;;97.25;25.23;;;2.30;99.90;;;;;;4902129;28;20523;-79
2021/01/11 05:50:08;;;;;;;103.43;26.17;;;2.30;99.90;;;;;;4900859;28;20134;-79
2021/01/11 05:52:32;;;;;;;106.18;26.80;;;2.30;99.90;;;;;;4897936;28;20107;-83
2021/01/11 05:54:57;;;;;;;102.78;25.90;;;2.30;99.90;;;;;;4896467;28;20138;-80
2021/01/11 05:57:22;;;;;;;98.85;23.63;;;2.30;99.90;;;;;;4902280;28;20445;-81
2021/01/11 05:59:45;;;;;;;;;;;2.40;99.90;;;;;;4904239;28;20173;-83
2021/01/11 06:02:07;;;;;;;94.45;23.05;;;2.30;99.90;;;;;;4890413;28;20108;-80
2021/01/11 06:04:31;;;;;;;80.20;22.40;;;2.30;99.90;;;;;;4900533;28;20094;-80
2021/01/11 06:06:57;;;;;;;91.97;22.05;;;2.40;99.90;;;;;;4902122;28;20458;-81
2021/01/11 06:09:21;;;;;;;101.57;25.05;;;2.30;99.90;;;;;;4904843;28;20120;-80
2021/01/11 06:11:47;;;;;;;96.70;24.53;;;2.40;99.90;;;;;;4902021;28;20086;-80
2021/01/11 06:14:11;;;;;;;93.28;24.35;;;2.40;99.90;;;;;;4901362;28;20167;-79
2021/01/11 06:16:34;;;;;;;100.45;23.58;;;;;;;;;;4900536;28;20552;-81
2021/01/11 06:18:59;;;;;;;81.53;21.88;;;2.40;99.90;;;;;;4901482;28;20116;-81
2021/01/11 06:21:23;;;;;;;110.93;25.17;;;2.40;99.90;;;;;;4900064;28;20103;-83
2021/01/11 06:23:47;;;;;;;97.28;23.80;;;2.40;99.90;;;;;;4905046;28;20488;-82
2021/01/11 06:26:31;;;;;;;94.40;23.58;;;2.40;99.90;;;;;;4900915;28;20112;-81
2021/01/11 06:28:55;;;;;;;98.65;24.48;;;;;;;;;;4900414;28;20104;-80
2021/01/11 06:31:18;;;;;;;87.22;23.30;;;2.40;99.90;;;;;;4903240;28;20090;-83
2021/01/11 06:33:41;;;;;;;96.00;22.75;;;2.40;99.90;;;;;;4903397;28;20092;-81
2021/01/11 06:36:19;;;;;;;105.07;24.73;;;2.40;99.90;;;;;;4904234;28;20100;-83
2021/01/11 06:38:42;;;;;;;91.68;25.23;;;2.40;99.90;;;;;;4902594;28;20114;-81
2021/01/11 06:41:14;;;;;;;78.10;21.05;;;2.40;99.90;;;;;;4904723;28;20110;-80
2021/01/11 06:43:44;;;;;;;99.10;22.98;;;2.40;99.90;;;;;;4902247;28;20163;-81
2021/01/11 06:46:07;;;;;;;88.40;23.05;;;2.40;99.90;;;;;;4900335;28;20536;-80
2021/01/11 06:48:34;;;;;;;98.10;24.25;;;2.40;99.90;;;;;;4902080;28;20096;-81
2021/01/11 06:51:06;;;;;;;106.78;26.42;;;2.40;99.90;;;;;;4903861;28;20091;-90
2021/01/11 06:53:29;;;;;;;100.70;24.33;;;2.30;99.90;;;;;;4903848;28;20088;-82
2021/01/11 06:56:07;;;;;;;104.72;25.63;;;2.40;99.90;;;;;;4905144;28;20173;-85
2021/01/11 06:58:33;;;;;;;96.35;24.55;;;2.30;99.90;;;;;;4898889;28;20125;-79
2021/01/11 07:01:03;;;;;;;98.43;25.77;;;2.40;99.90;;;;;;4903286;28;20145;-80
2021/01/11 07:03:43;;;;;;;107.57;23.15;;;2.30;99.90;;;;;;4902611;28;20089;-81
2021/01/11 07:06:06;;;;;;;94.45;23.77;;;2.30;99.90;;;;;;4902517;28;20495;-80
2021/01/11 07:08:29;;;;;;;104.07;27.25;;;2.30;99.90;;;;;;4905341;28;20594;-80
2021/01/11 07:11:04;;;;;;;101.75;24.80;;;2.30;99.90;;;;;;4903914;28;20112;-81
2021/01/11 07:13:27;;;;;;;110.18;24.70;;;2.30;99.90;;;;;;4902311;28;20535;-82
2021/01/11 07:16:10;;;;;;;95.88;24.90;;;2.30;99.90;;;;;;4901028;28;20545;-81
2021/01/11 07:18:45;;;;;;;95.80;26.08;;;2.30;99.90;;;;;;4896952;28;20089;-80
2021/01/11 07:21:12;;;;;;;111.07;24.60;;;2.30;99.90;;;;;;4900938;28;20108;-81
2021/01/11 07:23:35;;;;;;;84.57;23.60;;;2.30;99.90;;;;;;4901221;28;20175;-80
2021/01/11 07:26:01;;;;;;;103.25;24.77;;;2.20;99.90;;;;;;4902474;28;20624;-81
2021/01/11 07:28:23;;;;;;;;;;;2.30;99.90;;;;;;4903161;28;20124;-85
2021/01/11 07:30:48;;;;;;;96.25;21.95;;;2.30;99.90;;;;;;4904854;28;19973;-81
2021/01/11 07:33:12;;;;;;;98.90;26.83;;;2.30;99.90;;;;;;4902323;28;20107;-84
2021/01/11 07:35:41;;;;;;;97.22;24.85;;;2.30;99.90;;;;;;4902028;28;20117;-81
2021/01/11 07:38:04;;;;;;;86.57;24.13;;;2.30;99.90;;;;;;4901052;28;20104;-79
2021/01/11 07:40:27;;;;;;;82.78;23.20;;;2.30;99.90;;;;;;4903324;28;20092;-81
2021/01/11 07:42:50;;;;;;;93.63;24.67;;;2.30;99.90;;;;;;4903173;28;20094;-80
2021/01/11 07:45:14;;;;;;;96.00;24.58;;;2.30;99.90;;;;;;4906079;28;20144;-81
2021/01/11 07:47:37;;;;;;;97.45;25.30;;;;;;;;;;4901737;28;20089;-83
2021/01/11 07:50:01;;;;;;;84.78;21.13;;;2.30;99.90;;;;;;4902518;28;20143;-80
2021/01/11 07:52:25;;;;;;;85.63;23.65;;;2.30;99.90;;;;;;4900842;28;20096;-81
2021/01/11 07:54:58;;;;;;;110.72;26.38;;;2.30;99.90;;;;;;4900361;28;20542;-80
2021/01/11 07:57:21;;;;;;;99.97;24.33;;;2.30;99.90;;;;;;4902925;28;20086;-81
2021/01/11 07:59:45;;;;;;;99.30;25.15;;;2.30;99.90;;;;;;4902344;28;20472;-80
2021/01/11 08:02:11;;;;;;;86.38;24.63;;;2.30;99.90;;;;;;4902520;28;20121;-80
2021/01/11 08:04:38;;;;;;;99.97;25.17;;;2.30;99.90;;;;;;4903804;28;20542;-82
2021/01/11 08:07:06;;;;;;;90.55;24.10;;;2.30;99.90;;;;;;4902207;28;20125;-81
2021/01/11 08:09:30;;;;;;;98.40;25.30;;;2.30;99.90;;;;;;4901393;28;20123;-81
2021/01/11 08:12:07;;;;;;;92.13;23.90;;;2.30;99.90;;;;;;4902807;28;20107;-81
2021/01/11 08:14:30;;;;;;;98.38;25.27;;;2.20;99.90;;;;;;4902998;28;20142;-81
2021/01/11 08:16:53;;;;;;;91.00;23.13;;;2.30;99.90;;;;;;4905035;28;20115;-80
2021/01/11 08:19:16;;;;;;;105.38;27.10;;;2.20;99.90;;;;;;4898614;28;20086;-81
2021/01/11 08:21:40;;;;;;;90.05;24.60;;;2.30;99.90;;;;;;4905010;28;20523;-84
2021/01/11 08:24:08;;;;;;;91.53;22.77;;;2.30;99.90;;;;;;4899551;28;20149;-81
2021/01/11 08:26:36;;;;;;;85.55;23.60;;;2.30;99.90;;;;;;4903290;28;20085;-81
2021/01/11 08:29:01;;;;;;;91.32;23.08;;;2.30;99.90;;;;;;4901459;28;22900;-82
2021/01/11 08:31:25;;;;;;;93.88;23.42;;;2.30;99.90;;;;;;4902140;28;20103;-80
2021/01/11 08:33:48;;;;;;;90.85;23.88;;;2.30;99.90;;;;;;4902735;28;20111;-82
2021/01/11 08:36:19;;;;;;;97.75;26.98;;;2.30;99.90;;;;;;4903175;28;20097;-81
2021/01/11 08:39:08;;;;;;;103.93;24.35;;;2.30;99.90;;;;;;4899063;28;20112;-81
2021/01/11 08:41:34;;;;;;;105.80;25.45;;;2.30;99.90;;;;;;4895720;28;20128;-81
2021/01/11 08:43:57;;;;;;;101.38;24.88;;;2.30;99.90;;;;;;4902800;28;20106;-84
2021/01/11 08:46:20;;;;;;;107.30;26.05;;;2.30;99.90;;;;;;4902443;28;20174;-79
2021/01/11 08:48:42;;;;;;;108.10;26.10;;;2.30;99.90;;;;;;4893950;28;20089;-81
2021/01/11 08:51:07;;;;;;;104.53;25.17;;;2.30;99.90;;;;;;4902785;28;20103;-81
2021/01/11 08:53:38;;;;;;;115.97;26.25;;;2.20;99.90;;;;;;4904430;28;20119;-85
2021/01/11 08:56:06;;;;;;;89.07;25.13;;;2.30;99.90;;;;;;4898937;28;20089;-81
2021/01/11 08:58:30;;;;;;;96.70;24.17;;;2.20;99.90;;;;;;4899262;28;20576;-82
2021/01/11 09:01:22;;;;;;;114.60;26.45;;;2.20;99.90;;;;;;4884377;28;20171;-79
2021/01/11 09:03:49;;;;;;;84.82;22.63;;;2.20;99.90;;;;;;4846885;28;20105;-83
2021/01/11 09:06:37;;;;;;;94.95;24.55;;;2.20;99.90;;;;;;4850207;28;20484;-79
2021/01/11 09:09:31;;;;;;;93.07;23.65;;;2.20;99.90;;;;;;4861762;28;20115;-83
2021/01/11 09:12:29;;;;;;;86.78;23.55;;;2.20;99.90;;;;;;4850599;28;20574;-81
2021/01/11 09:15:43;;;;;;;100.53;25.27;;;2.20;99.90;;;;;;4844081;28;20146;-80
2021/01/11 09:18:17;;;;;;;100.20;23.27;;;2.20;99.90;;;;;;4843444;28;20103;-81
2021/01/11 09:20:55;;;;;;;84.90;22.52;;;2.20;99.90;;;;;;4865685;28;20086;-80
2021/01/11 09:26:51;;;;;;;82.50;22.45;;;2.20;99.90;;;;;;4845439;28;20114;-82
2021/01/11 09:47:07;;;;;;;78.95;21.52;;;2.20;99.90;;;;;;4846785;28;20842;-81
2021/01/11 09:57:11;;;;;;;65.93;18.20;;;2.30;99.90;;;;;;4849303;28;20130;-80
2021/01/11 10:17:14;;;;;;;63.17;19.45;;;2.40;99.90;;;;;;4846761;28;20112;-82
2021/01/11 10:23:14;;;;;;;63.05;19.88;;;2.40;99.90;;;;;;4845843;28;20100;-81
2021/01/11 10:26:01;;;;;;;69.68;22.23;;;2.40;99.90;;;;;;4848215;28;20553;-82
2021/01/11 10:35:23;;;;;;;39.78;15.38;;;2.50;99.90;;;;;;4836195;28;20116;-82
2021/01/11 10:38:35;;;;;;;51.85;18.13;;;2.40;99.90;;;;;;4852642;28;20506;-84
2021/01/11 10:41:44;;;;;;;43.10;15.48;;;2.50;99.90;;;;;;4830452;28;20097;-83
2021/01/11 10:44:26;;;;;;;44.05;17.25;;;2.50;99.90;;;;;;4843139;28;20162;-83
2021/01/11 10:46:50;;;;;;;46.95;17.45;;;2.50;99.90;;;;;;4853206;28;20080;-82
2021/01/11 10:49:13;;;;;;;42.00;15.50;;;2.40;99.90;;;;;;4905843;28;20096;-80
2021/01/11 10:51:37;;;;;;;44.85;17.17;;;2.50;99.90;;;;;;4904769;28;20100;-80
2021/01/11 10:53:59;;;;;;;42.35;16.98;;;2.40;99.90;;;;;;4904109;28;21284;-84
2021/01/11 10:56:23;;;;;;;40.85;15.50;;;2.50;99.90;;;;;;4905137;28;20099;-81
2021/01/11 10:58:46;;;;;;;42.88;16.67;;;2.50;99.90;;;;;;4908435;28;20185;-80
2021/01/11 11:01:12;;;;;;;42.30;16.13;;;2.40;99.90;;;;;;4901048;28;20098;-84
2021/01/11 11:03:35;;;;;;;55.03;19.55;;;2.50;99.90;;;;;;4905874;28;20439;-83
2021/01/11 11:05:58;;;;;;;45.83;17.77;;;2.50;99.90;;;;;;4903789;28;20492;-81
2021/01/11 11:08:22;;;;;;;46.80;16.90;;;2.40;99.90;;;;;;4904314;28;20092;-84
2021/01/11 11:10:46;;;;;;;43.47;16.55;;;2.50;99.90;;;;;;4900408;28;20127;-81
2021/01/11 11:13:08;;;;;;;41.15;15.45;;;2.40;99.90;;;;;;4903797;28;20101;-82
2021/01/11 11:15:34;;;;;;;40.13;15.40;;;2.40;99.90;;;;;;4908019;28;20091;-81
2021/01/11 11:18:03;;;;;;;32.15;13.50;;;2.40;99.90;;;;;;4904846;28;20595;-80
2021/01/11 11:20:26;;;;;;;35.15;12.75;;;2.50;99.90;;;;;;4904081;28;20082;-81
2021/01/11 11:22:53;;;;;;;35.85;15.70;;;2.40;99.90;;;;;;4901929;28;20116;-80
2021/01/11 11:25:18;;;;;;;37.45;14.98;;;2.40;99.90;;;;;;4907725;28;20135;-81
2021/01/11 11:27:42;;;;;;;31.90;13.35;;;2.40;99.90;;;;;;4900955;28;20129;-83
2021/01/11 11:30:07;;;;;;;30.42;12.68;;;2.40;99.90;;;;;;4902122;28;20118;-83
2021/01/11 11:32:30;;;;;;;33.27;14.13;;;2.40;99.90;;;;;;4908383;28;20088;-83
2021/01/11 11:34:53;;;;;;;28.40;12.85;;;2.40;99.90;;;;;;4898331;28;20102;-81
2021/01/11 11:37:18;;;;;;;33.88;14.55;;;2.40;99.90;;;;;;4903635;28;20103;-87
2021/01/11 11:39:41;;;;;;;;;;;2.40;99.90;;;;;;4904333;28;20105;-83
2021/01/11 11:42:05;;;;;;;26.67;11.98;;;2.40;99.90;;;;;;4904833;28;19974;-84
2021/01/11 11:44:28;;;;;;;27.83;11.98;;;2.40;99.90;;;;;;4896164;28;20597;-85
2021/01/11 11:46:56;;;;;;;28.83;12.90;;;2.40;99.90;;;;;;4904736;28;20464;-82
2021/01/11 11:49:20;;;;;;;55.35;29.67;;;2.40;99.90;;;;;;4902730;28;20541;-82
2021/01/11 11:51:45;;;;;;;36.35;15.50;;;2.40;99.90;;;;;;4905260;28;20099;-84
2021/01/11 11:54:10;;;;;;;31.38;14.43;;;2.40;99.90;;;;;;4905564;28;20563;-83
2021/01/11 11:56:33;;;;;;;29.90;12.55;;;2.30;99.90;;;;;;4905925;28;20098;-83
2021/01/11 11:58:56;;;;;;;28.70;14.02;;;2.40;99.90;;;;;;4903442;28;20182;-82
2021/01/11 12:01:19;;;;;;;25.00;10.05;;;2.40;99.90;;;;;;4904411;28;20185;-80
2021/01/11 12:03:42;;;;;;;27.50;12.95;;;2.40;99.90;;;;;;4902461;28;20113;-85
2021/01/11 12:06:06;;;;;;;19.55;9.60;;;2.40;99.90;;;;;;4902263;28;20192;-79
2021/01/11 12:08:28;;;;;;;26.38;12.25;;;2.50;99.90;;;;;;4903988;28;20094;-80
2021/01/11 12:10:51;;;;;;;26.45;12.55;;;2.40;99.90;;;;;;4901951;28;20120;-84
2021/01/11 12:13:14;;;;;;;18.52;8.40;;;2.50;99.90;;;;;;4903342;28;20495;-81
2021/01/11 12:15:38;;;;;;;20.95;9.93;;;2.50;99.90;;;;;;4902948;28;20109;-81
2021/01/11 12:18:01;;;;;;;25.55;12.15;;;2.50;99.90;;;;;;4901487;28;20093;-81
2021/01/11 12:20:23;;;;;;;29.08;12.02;;;2.50;99.90;;;;;;4892982;28;20221;-81
2021/01/11 12:22:48;;;;;;;19.55;9.02;;;2.50;99.90;;;;;;4906253;28;20536;-85
2021/01/11 12:25:13;;;;;;;20.42;10.02;;;2.40;99.90;;;;;;4905386;28;20456;-82
2021/01/11 12:27:36;;;;;;;28.67;12.95;;;2.50;99.90;;;;;;4903791;28;20169;-82
2021/01/11 12:29:59;;;;;;;20.80;9.32;;;2.40;99.90;;;;;;4905522;28;20130;-82
2021/01/11 12:32:24;;;;;;;19.48;9.70;;;;;;;;;;4898551;28;20455;-81
2021/01/11 12:34:47;;;;;;;21.83;9.27;;;2.40;99.90;;;;;;4892072;28;20484;-85
2021/01/11 12:37:13;;;;;;;24.40;12.52;;;2.50;99.90;;;;;;4906061;28;20088;-82
2021/01/11 12:39:36;;;;;;;20.45;10.15;;;2.40;99.90;;;;;;4902401;28;20442;-82
2021/01/11 12:41:58;;;;;;;20.90;10.70;;;2.40;99.90;;;;;;4894162;28;20093;-81
2021/01/11 12:44:21;;;;;;;21.30;10.77;;;2.40;99.90;;;;;;4901966;28;20481;-82
2021/01/11 12:46:44;;;;;;;24.98;11.57;;;2.40;99.90;;;;;;4902471;28;20165;-84
2021/01/11 12:49:09;;;;;;;24.30;10.20;;;2.40;99.90;;;;;;4905557;28;20109;-81
2021/01/11 12:51:35;;;;;;;23.50;9.95;;;2.40;99.90;;;;;;4900851;28;20118;-80
2021/01/11 12:53:58;;;;;;;21.15;10.32;;;2.30;99.90;;;;;;4900440;28;20480;-81
2021/01/11 12:56:25;;;;;;;24.00;10.23;;;2.40;99.90;;;;;;4899936;28;20142;-82
2021/01/11 12:58:48;;;;;;;20.48;9.90;;;2.40;99.90;;;;;;4902426;28;20876;-81
2021/01/11 13:01:17;;;;;;;20.63;10.90;;;2.40;99.90;;;;;;4903160;28;20466;-81
2021/01/11 13:03:40;;;;;;;20.60;10.27;;;2.40;99.90;;;;;;4896706;28;20105;-83
2021/01/11 13:06:04;;;;;;;22.17;10.77;;;2.40;99.90;;;;;;4907818;28;20097;-81
2021/01/11 13:08:27;;;;;;;21.67;10.73;;;2.40;99.90;;;;;;4896708;28;20100;-81
2021/01/11 13:10:51;;;;;;;24.05;10.85;;;2.40;99.90;;;;;;4903148;28;20121;-81
2021/01/11 13:13:14;;;;;;;24.67;11.07;;;2.40;99.90;;;;;;4901063;28;20175;-81
2021/01/11 13:15:36;;;;;;;21.05;9.63;;;2.30;99.90;;;;;;4900969;28;20140;-81
2021/01/11 13:18:00;;;;;;;26.05;11.25;;;2.30;99.90;;;;;;4906115;28;20461;-83
2021/01/11 13:20:25;;;;;;;24.27;11.18;;;2.30;99.90;;;;;;4907549;28;20116;-81
2021/01/11 13:22:49;;;;;;;29.40;11.77;;;;;;;;;;4907707;28;20514;-85
2021/01/11 13:25:14;;;;;;;24.42;11.30;;;2.30;99.90;;;;;;4906860;28;20481;-82
2021/01/11 13:27:37;;;;;;;26.42;11.57;;;2.30;99.90;;;;;;4903852;28;20090;-81
2021/01/11 13:30:01;;;;;;;27.08;12.00;;;2.30;99.90;;;;;;4906184;28;20093;-82